X  Cerrar Datos meteorológicos de aviación METAR        LEAL ELCHE/ALTET
Temperatura
26°C Temperatura
21°C Punto de rocío
74% Humedad



Viento
17 KM/H
10 MPH
4 M/S
9 NUDO



180°
S
Condiciones actuales

Mostly Sunny Mayormente soleado
Presión 1012 (hPa) - 29.88 (inHg)
Visibilidad 7 (milla) - 11 (km)
Aeropuerto
Código de aeropuerto LEAL

localidad: ELCHE/ALTET
Distancia: 14 (km)

Metar:
METAR LEAL 181730Z 18009KT 150V230 CAVOK 26/21 Q1012 NOSIG

Hora: 18-09-2021 19:30 CEST